메인 페이지
METAR-TAF:

METAR-TAF

공항 :

마데이라 공항

푼샬, 마데이라 제도, 포르투갈

위도: 32-41-52N, 경도: 016-46-28W, 고도: 59m

현재 날씨관측

예보는 27분 전, 09:00시(UTC)에 발표되었습니다.
7kt풍과 북동풍을 오가는
온도 16°C
습도 59%
기압 1025 hPa
시정 10km 이상
고도 1600ft 상공 구름 조금
고도 3000ft 상공 구름 많음

METAR: LPMA 200900Z 36007KT 280V050 9999 FEW016 BKN030 16/08 Q1025

시각: 09:27 (09:27 UTC)

예보

예보는 4 시간 27분 전, 05:00시(UTC)에 발표되었습니다.
예보 대상 시간: 20일 06시부터 21일 06시까지 (UTC)
북북동13kt
시정 10km 이상
고도 1600ft 상공 구름 보통
고도 3000ft 상공 구름 많음
전환 중
20일 12시부터 20일 15시까지 (UTC)
13kt
일시적
20일 17시부터 21일 06시까지 (UTC)
시정: 5000m
고도 1300ft 상공 구름 많음
고도 2000ft 상공 구름 조금, 적란운.
소나기
확률 40% :
일시적
20일 20시부터 21일 03시까지 (UTC)
15kt, 순간 최대 풍속 25kt
확률 30% :
일시적
21일 03시부터 21일 06시까지 (UTC)
여러 방향의 바람 15kt, 순간 최대 풍속 25kt
시정: 3000m
고도 1000ft 상공 구름 많음
고도 1500ft 상공 구름 보통, 적란운.
뇌우, 비

TAF: LPMA 200500Z 2006/2106 03013KT 9999 SCT016 BKN030 BECMG 2012/2015 35013KT TEMPO 2017/2106 5000 SHRA BKN013 FEW020CB PROB40 TEMPO 2020/2103 35015G25KT PROB30 TEMPO 2103/2106 VRB15G25KT 3000 TSRA BKN010 SCT015CB

4,000개 이상의 공항 관측 자료 및 예보 (METAR 및 TAF 보고).

지도상에서 검색 가능한 기상관측소가 노란 점과 빨간 점으로 표시되어 있습니다.

기상관측소 명을 보려면 표시 위로 마우스를 이동하세요.

날씨 관측과 예보를 보려면 클릭하세요.

지도 변경 : 확대하려면 엑스 표시가 있는 녹색 버튼, 축소하려면 빼기 표시가 있는 녹색 버튼, 다음 페이지의 지도를 보려면 녹색 화살표를 클릭하세요.


METAR-TAF: